sensor_id;sensor_type;location;lat;lon;timestamp;P1;durP1;ratioP1;P2;durP2;ratioP2
52188;SDS011;38162;45.926;13.608;2023-03-15T00:00:19;5.25;;;3.92;;
52188;SDS011;38162;45.926;13.608;2023-03-15T00:02:45;4.60;;;3.55;;
52188;SDS011;38162;45.926;13.608;2023-03-15T00:05:11;7.40;;;4.45;;
52188;SDS011;38162;45.926;13.608;2023-03-15T00:07:37;6.97;;;3.83;;
52188;SDS011;38162;45.926;13.608;2023-03-15T00:10:03;5.50;;;3.90;;
52188;SDS011;38162;45.926;13.608;2023-03-15T00:12:30;5.45;;;4.00;;
52188;SDS011;38162;45.926;13.608;2023-03-15T00:14:56;6.78;;;4.20;;
52188;SDS011;38162;45.926;13.608;2023-03-15T00:17:22;7.00;;;3.95;;
52188;SDS011;38162;45.926;13.608;2023-03-15T00:19:48;5.75;;;4.05;;
52188;SDS011;38162;45.926;13.608;2023-03-15T00:22:14;6.43;;;3.92;;
52188;SDS011;38162;45.926;13.608;2023-03-15T00:24:39;6.90;;;4.15;;
52188;SDS011;38162;45.926;13.608;2023-03-15T00:27:05;7.55;;;4.32;;
52188;SDS011;38162;45.926;13.608;2023-03-15T00:29:31;7.18;;;4.40;;
52188;SDS011;38162;45.926;13.608;2023-03-15T00:31:57;6.95;;;5.75;;
52188;SDS011;38162;45.926;13.608;2023-03-15T00:34:23;8.55;;;5.90;;
52188;SDS011;38162;45.926;13.608;2023-03-15T00:36:52;11.32;;;6.13;;
52188;SDS011;38162;45.926;13.608;2023-03-15T00:39:18;7.78;;;6.28;;
52188;SDS011;38162;45.926;13.608;2023-03-15T00:41:44;10.30;;;5.85;;
52188;SDS011;38162;45.926;13.608;2023-03-15T00:44:11;8.00;;;5.90;;
52188;SDS011;38162;45.926;13.608;2023-03-15T00:46:37;7.85;;;5.53;;
52188;SDS011;38162;45.926;13.608;2023-03-15T00:49:03;6.75;;;5.13;;
52188;SDS011;38162;45.926;13.608;2023-03-15T00:51:29;8.77;;;5.50;;
52188;SDS011;38162;45.926;13.608;2023-03-15T00:53:55;10.18;;;5.18;;
52188;SDS011;38162;45.926;13.608;2023-03-15T00:56:22;7.72;;;5.43;;
52188;SDS011;38162;45.926;13.608;2023-03-15T00:58:51;7.07;;;4.75;;
52188;SDS011;38162;45.926;13.608;2023-03-15T01:01:18;6.38;;;4.20;;
52188;SDS011;38162;45.926;13.608;2023-03-15T01:03:46;7.95;;;4.13;;
52188;SDS011;38162;45.926;13.608;2023-03-15T01:06:16;10.00;;;3.90;;
52188;SDS011;38162;45.926;13.608;2023-03-15T01:08:47;7.57;;;4.65;;
52188;SDS011;38162;45.926;13.608;2023-03-15T01:12:01;8.57;;;4.93;;
52188;SDS011;38162;45.926;13.608;2023-03-15T01:14:16;11.70;;;5.45;;
52188;SDS011;38162;45.926;13.608;2023-03-15T01:16:43;7.97;;;5.10;;
52188;SDS011;38162;45.926;13.608;2023-03-15T01:23:11;6.18;;;4.50;;
52188;SDS011;38162;45.926;13.608;2023-03-15T01:25:37;8.15;;;4.47;;
52188;SDS011;38162;45.926;13.608;2023-03-15T01:35:17;6.45;;;3.28;;
52188;SDS011;38162;45.926;13.608;2023-03-15T01:44:18;4.63;;;2.80;;
52188;SDS011;38162;45.926;13.608;2023-03-15T01:46:45;8.23;;;3.10;;
52188;SDS011;38162;45.926;13.608;2023-03-15T01:52:02;5.85;;;2.70;;
52188;SDS011;38162;45.926;13.608;2023-03-15T01:54:41;7.97;;;3.00;;
52188;SDS011;38162;45.926;13.608;2023-03-15T01:59:39;6.60;;;3.65;;
52188;SDS011;38162;45.926;13.608;2023-03-15T02:02:15;7.38;;;3.83;;
52188;SDS011;38162;45.926;13.608;2023-03-15T02:05:04;6.43;;;3.65;;
52188;SDS011;38162;45.926;13.608;2023-03-15T02:07:33;6.97;;;4.43;;
52188;SDS011;38162;45.926;13.608;2023-03-15T02:10:03;7.43;;;4.50;;
52188;SDS011;38162;45.926;13.608;2023-03-15T02:12:33;6.75;;;4.00;;
52188;SDS011;38162;45.926;13.608;2023-03-15T02:15:03;7.82;;;4.60;;
52188;SDS011;38162;45.926;13.608;2023-03-15T02:17:48;8.00;;;4.78;;
52188;SDS011;38162;45.926;13.608;2023-03-15T02:20:20;8.10;;;4.40;;
52188;SDS011;38162;45.926;13.608;2023-03-15T02:28:12;9.45;;;5.28;;
52188;SDS011;38162;45.926;13.608;2023-03-15T02:30:39;6.68;;;5.00;;
52188;SDS011;38162;45.926;13.608;2023-03-15T02:33:08;7.05;;;4.88;;
52188;SDS011;38162;45.926;13.608;2023-03-15T02:35:40;12.95;;;5.03;;
52188;SDS011;38162;45.926;13.608;2023-03-15T02:38:06;7.78;;;4.45;;
52188;SDS011;38162;45.926;13.608;2023-03-15T02:40:32;9.32;;;4.13;;
52188;SDS011;38162;45.926;13.608;2023-03-15T02:42:59;6.03;;;4.70;;
52188;SDS011;38162;45.926;13.608;2023-03-15T02:45:29;6.60;;;4.40;;
52188;SDS011;38162;45.926;13.608;2023-03-15T02:47:57;7.90;;;4.38;;
52188;SDS011;38162;45.926;13.608;2023-03-15T02:50:25;8.90;;;3.97;;
52188;SDS011;38162;45.926;13.608;2023-03-15T02:52:51;5.72;;;3.40;;
52188;SDS011;38162;45.926;13.608;2023-03-15T02:55:17;8.30;;;3.72;;
52188;SDS011;38162;45.926;13.608;2023-03-15T02:57:43;5.90;;;2.80;;
52188;SDS011;38162;45.926;13.608;2023-03-15T03:00:19;7.95;;;3.40;;
52188;SDS011;38162;45.926;13.608;2023-03-15T03:13:32;9.00;;;4.03;;
52188;SDS011;38162;45.926;13.608;2023-03-15T03:16:16;6.00;;;3.30;;
52188;SDS011;38162;45.926;13.608;2023-03-15T03:18:59;5.07;;;2.80;;
52188;SDS011;38162;45.926;13.608;2023-03-15T03:25:42;5.97;;;2.38;;
52188;SDS011;38162;45.926;13.608;2023-03-15T03:28:18;4.97;;;2.50;;
52188;SDS011;38162;45.926;13.608;2023-03-15T03:30:45;6.72;;;2.58;;
52188;SDS011;38162;45.926;13.608;2023-03-15T03:33:11;4.82;;;2.13;;
52188;SDS011;38162;45.926;13.608;2023-03-15T03:35:37;3.90;;;2.08;;
52188;SDS011;38162;45.926;13.608;2023-03-15T03:38:02;3.50;;;1.63;;
52188;SDS011;38162;45.926;13.608;2023-03-15T03:40:28;4.60;;;2.08;;
52188;SDS011;38162;45.926;13.608;2023-03-15T03:42:54;5.20;;;2.08;;
52188;SDS011;38162;45.926;13.608;2023-03-15T03:45:20;4.70;;;1.92;;
52188;SDS011;38162;45.926;13.608;2023-03-15T03:47:46;5.50;;;1.92;;
52188;SDS011;38162;45.926;13.608;2023-03-15T03:50:12;4.47;;;1.77;;
52188;SDS011;38162;45.926;13.608;2023-03-15T03:52:37;8.88;;;2.17;;
52188;SDS011;38162;45.926;13.608;2023-03-15T03:55:03;7.13;;;2.05;;
52188;SDS011;38162;45.926;13.608;2023-03-15T03:57:29;6.93;;;1.80;;
52188;SDS011;38162;45.926;13.608;2023-03-15T03:59:55;4.72;;;1.35;;
52188;SDS011;38162;45.926;13.608;2023-03-15T04:02:22;4.43;;;1.60;;
52188;SDS011;38162;45.926;13.608;2023-03-15T04:04:48;4.47;;;1.50;;
52188;SDS011;38162;45.926;13.608;2023-03-15T04:07:14;3.08;;;1.55;;
52188;SDS011;38162;45.926;13.608;2023-03-15T04:09:40;4.18;;;1.40;;
52188;SDS011;38162;45.926;13.608;2023-03-15T04:12:06;7.03;;;1.80;;
52188;SDS011;38162;45.926;13.608;2023-03-15T04:14:32;4.68;;;1.42;;
52188;SDS011;38162;45.926;13.608;2023-03-15T04:16:58;5.38;;;1.83;;
52188;SDS011;38162;45.926;13.608;2023-03-15T04:19:24;4.97;;;1.90;;
52188;SDS011;38162;45.926;13.608;2023-03-15T04:21:49;2.30;;;1.33;;
52188;SDS011;38162;45.926;13.608;2023-03-15T04:24:16;3.10;;;1.45;;
52188;SDS011;38162;45.926;13.608;2023-03-15T04:26:42;4.18;;;1.67;;
52188;SDS011;38162;45.926;13.608;2023-03-15T04:29:08;3.08;;;1.40;;
52188;SDS011;38162;45.926;13.608;2023-03-15T04:31:36;4.18;;;1.73;;
52188;SDS011;38162;45.926;13.608;2023-03-15T04:34:02;10.32;;;2.45;;
52188;SDS011;38162;45.926;13.608;2023-03-15T04:36:29;5.03;;;1.58;;
52188;SDS011;38162;45.926;13.608;2023-03-15T04:38:55;6.00;;;2.15;;
52188;SDS011;38162;45.926;13.608;2023-03-15T04:41:31;5.30;;;1.80;;
52188;SDS011;38162;45.926;13.608;2023-03-15T04:44:07;4.30;;;1.70;;
52188;SDS011;38162;45.926;13.608;2023-03-15T04:46:38;3.72;;;1.63;;
52188;SDS011;38162;45.926;13.608;2023-03-15T04:49:14;0.83;;;0.60;;
52188;SDS011;38162;45.926;13.608;2023-03-15T04:51:57;1.17;;;0.30;;
52188;SDS011;38162;45.926;13.608;2023-03-15T04:59:09;1.30;;;0.20;;
52188;SDS011;38162;45.926;13.608;2023-03-15T05:11:18;1.42;;;0.32;;
52188;SDS011;38162;45.926;13.608;2023-03-15T05:13:44;1.55;;;0.30;;
52188;SDS011;38162;45.926;13.608;2023-03-15T05:16:10;1.55;;;0.20;;
52188;SDS011;38162;45.926;13.608;2023-03-15T05:18:36;1.60;;;0.30;;
52188;SDS011;38162;45.926;13.608;2023-03-15T05:21:02;1.48;;;0.28;;
52188;SDS011;38162;45.926;13.608;2023-03-15T05:23:30;2.00;;;0.30;;
52188;SDS011;38162;45.926;13.608;2023-03-15T05:25:58;1.10;;;0.20;;
52188;SDS011;38162;45.926;13.608;2023-03-15T05:28:25;0.65;;;0.30;;
52188;SDS011;38162;45.926;13.608;2023-03-15T05:30:51;0.30;;;0.20;;
52188;SDS011;38162;45.926;13.608;2023-03-15T05:33:18;1.10;;;0.32;;
52188;SDS011;38162;45.926;13.608;2023-03-15T05:35:44;0.30;;;0.20;;
52188;SDS011;38162;45.926;13.608;2023-03-15T05:38:10;0.80;;;0.30;;
52188;SDS011;38162;45.926;13.608;2023-03-15T05:40:44;0.55;;;0.30;;
52188;SDS011;38162;45.926;13.608;2023-03-15T05:43:11;2.05;;;0.60;;
52188;SDS011;38162;45.926;13.608;2023-03-15T05:45:37;0.85;;;0.32;;
52188;SDS011;38162;45.926;13.608;2023-03-15T05:48:03;1.80;;;0.50;;
52188;SDS011;38162;45.926;13.608;2023-03-15T05:50:29;0.80;;;0.23;;
52188;SDS011;38162;45.926;13.608;2023-03-15T05:52:56;0.50;;;0.30;;
52188;SDS011;38162;45.926;13.608;2023-03-15T05:55:22;1.30;;;0.37;;
52188;SDS011;38162;45.926;13.608;2023-03-15T05:57:48;1.40;;;0.50;;
52188;SDS011;38162;45.926;13.608;2023-03-15T06:00:14;0.60;;;0.40;;
52188;SDS011;38162;45.926;13.608;2023-03-15T06:02:42;0.65;;;0.32;;
52188;SDS011;38162;45.926;13.608;2023-03-15T06:05:08;0.90;;;0.30;;
52188;SDS011;38162;45.926;13.608;2023-03-15T06:07:34;1.00;;;0.30;;
52188;SDS011;38162;45.926;13.608;2023-03-15T06:10:00;1.38;;;0.40;;
52188;SDS011;38162;45.926;13.608;2023-03-15T06:12:27;1.05;;;0.30;;
52188;SDS011;38162;45.926;13.608;2023-03-15T06:14:53;1.57;;;0.40;;
52188;SDS011;38162;45.926;13.608;2023-03-15T06:17:18;1.80;;;0.55;;
52188;SDS011;38162;45.926;13.608;2023-03-15T06:19:45;0.83;;;0.30;;
52188;SDS011;38162;45.926;13.608;2023-03-15T06:22:11;0.80;;;0.30;;
52188;SDS011;38162;45.926;13.608;2023-03-15T06:24:37;0.93;;;0.20;;
52188;SDS011;38162;45.926;13.608;2023-03-15T06:27:03;0.77;;;0.30;;
52188;SDS011;38162;45.926;13.608;2023-03-15T06:36:26;1.87;;;1.10;;
52188;SDS011;38162;45.926;13.608;2023-03-15T06:55:51;1.10;;;0.33;;
52188;SDS011;38162;45.926;13.608;2023-03-15T06:58:40;0.87;;;0.30;;
52188;SDS011;38162;45.926;13.608;2023-03-15T07:01:07;1.38;;;0.40;;
52188;SDS011;38162;45.926;13.608;2023-03-15T07:03:36;1.47;;;0.50;;
52188;SDS011;38162;45.926;13.608;2023-03-15T07:06:02;1.03;;;0.40;;
52188;SDS011;38162;45.926;13.608;2023-03-15T07:08:28;1.77;;;0.55;;
52188;SDS011;38162;45.926;13.608;2023-03-15T07:10:53;4.78;;;0.90;;
52188;SDS011;38162;45.926;13.608;2023-03-15T07:13:19;3.88;;;0.70;;
52188;SDS011;38162;45.926;13.608;2023-03-15T07:15:45;1.60;;;0.43;;
52188;SDS011;38162;45.926;13.608;2023-03-15T07:18:15;1.55;;;0.50;;
52188;SDS011;38162;45.926;13.608;2023-03-15T07:20:40;1.05;;;0.50;;
52188;SDS011;38162;45.926;13.608;2023-03-15T07:23:06;0.73;;;0.60;;
52188;SDS011;38162;45.926;13.608;2023-03-15T07:25:32;1.88;;;0.30;;
52188;SDS011;38162;45.926;13.608;2023-03-15T07:27:58;9.85;;;0.50;;
52188;SDS011;38162;45.926;13.608;2023-03-15T07:30:23;1.80;;;0.47;;
52188;SDS011;38162;45.926;13.608;2023-03-15T07:32:49;1.65;;;0.25;;
52188;SDS011;38162;45.926;13.608;2023-03-15T07:35:15;1.80;;;0.30;;
52188;SDS011;38162;45.926;13.608;2023-03-15T07:37:42;0.88;;;0.30;;
52188;SDS011;38162;45.926;13.608;2023-03-15T07:40:08;1.83;;;0.52;;
52188;SDS011;38162;45.926;13.608;2023-03-15T07:42:35;2.58;;;0.47;;
52188;SDS011;38162;45.926;13.608;2023-03-15T07:45:02;4.28;;;0.32;;
52188;SDS011;38162;45.926;13.608;2023-03-15T07:47:29;1.03;;;0.40;;
52188;SDS011;38162;45.926;13.608;2023-03-15T07:49:54;1.75;;;0.43;;
52188;SDS011;38162;45.926;13.608;2023-03-15T07:52:21;0.40;;;0.20;;
52188;SDS011;38162;45.926;13.608;2023-03-15T07:54:47;5.13;;;0.30;;
52188;SDS011;38162;45.926;13.608;2023-03-15T07:57:13;0.75;;;0.20;;
52188;SDS011;38162;45.926;13.608;2023-03-15T07:59:38;0.47;;;0.25;;
52188;SDS011;38162;45.926;13.608;2023-03-15T08:02:04;0.50;;;0.22;;
52188;SDS011;38162;45.926;13.608;2023-03-15T08:04:30;1.08;;;0.30;;
52188;SDS011;38162;45.926;13.608;2023-03-15T08:06:56;1.88;;;0.30;;
52188;SDS011;38162;45.926;13.608;2023-03-15T08:09:26;0.60;;;0.30;;
52188;SDS011;38162;45.926;13.608;2023-03-15T08:11:52;0.47;;;0.20;;
52188;SDS011;38162;45.926;13.608;2023-03-15T08:14:18;0.43;;;0.20;;
52188;SDS011;38162;45.926;13.608;2023-03-15T08:16:44;1.27;;;0.30;;
52188;SDS011;38162;45.926;13.608;2023-03-15T08:19:14;1.65;;;0.30;;
52188;SDS011;38162;45.926;13.608;2023-03-15T08:21:40;0.77;;;0.25;;
52188;SDS011;38162;45.926;13.608;2023-03-15T08:24:15;1.27;;;0.30;;
52188;SDS011;38162;45.926;13.608;2023-03-15T08:30:10;2.70;;;0.32;;
52188;SDS011;38162;45.926;13.608;2023-03-15T08:39:36;0.80;;;0.40;;
52188;SDS011;38162;45.926;13.608;2023-03-15T08:42:43;0.30;;;0.20;;
52188;SDS011;38162;45.926;13.608;2023-03-15T08:45:14;1.17;;;0.77;;
52188;SDS011;38162;45.926;13.608;2023-03-15T08:47:41;6.38;;;3.03;;
52188;SDS011;38162;45.926;13.608;2023-03-15T08:50:08;1.67;;;0.90;;
52188;SDS011;38162;45.926;13.608;2023-03-15T08:52:36;0.82;;;0.57;;
52188;SDS011;38162;45.926;13.608;2023-03-15T08:55:02;4.40;;;0.22;;
52188;SDS011;38162;45.926;13.608;2023-03-15T08:57:29;0.30;;;0.30;;
52188;SDS011;38162;45.926;13.608;2023-03-15T08:59:57;0.32;;;0.20;;
52188;SDS011;38162;45.926;13.608;2023-03-15T09:02:24;1.77;;;0.43;;
52188;SDS011;38162;45.926;13.608;2023-03-15T09:04:49;0.30;;;0.30;;
52188;SDS011;38162;45.926;13.608;2023-03-15T09:07:15;0.77;;;0.40;;
52188;SDS011;38162;45.926;13.608;2023-03-15T09:09:41;1.38;;;0.73;;
52188;SDS011;38162;45.926;13.608;2023-03-15T09:12:12;8.30;;;0.70;;
52188;SDS011;38162;45.926;13.608;2023-03-15T09:14:39;1.52;;;0.52;;
52188;SDS011;38162;45.926;13.608;2023-03-15T09:17:05;2.15;;;0.43;;
52188;SDS011;38162;45.926;13.608;2023-03-15T09:19:31;0.30;;;0.30;;
52188;SDS011;38162;45.926;13.608;2023-03-15T09:21:56;0.75;;;0.30;;
52188;SDS011;38162;45.926;13.608;2023-03-15T09:24:22;0.32;;;0.22;;
52188;SDS011;38162;45.926;13.608;2023-03-15T09:26:48;1.20;;;0.20;;
52188;SDS011;38162;45.926;13.608;2023-03-15T09:29:14;0.32;;;0.20;;
52188;SDS011;38162;45.926;13.608;2023-03-15T09:31:39;0.82;;;0.50;;
52188;SDS011;38162;45.926;13.608;2023-03-15T09:34:05;0.30;;;0.20;;
52188;SDS011;38162;45.926;13.608;2023-03-15T09:36:31;4.65;;;0.30;;
52188;SDS011;38162;45.926;13.608;2023-03-15T09:38:58;1.95;;;0.40;;
52188;SDS011;38162;45.926;13.608;2023-03-15T09:41:43;1.05;;;0.30;;
52188;SDS011;38162;45.926;13.608;2023-03-15T09:44:15;0.28;;;0.20;;
52188;SDS011;38162;45.926;13.608;2023-03-15T09:50:18;0.20;;;0.20;;
52188;SDS011;38162;45.926;13.608;2023-03-15T09:52:59;0.82;;;0.38;;
52188;SDS011;38162;45.926;13.608;2023-03-15T09:55:38;0.17;;;0.17;;
52188;SDS011;38162;45.926;13.608;2023-03-15T09:58:09;2.42;;;0.30;;
52188;SDS011;38162;45.926;13.608;2023-03-15T10:00:45;0.98;;;0.30;;
52188;SDS011;38162;45.926;13.608;2023-03-15T10:26:57;0.75;;;0.30;;
52188;SDS011;38162;45.926;13.608;2023-03-15T10:35:59;0.55;;;0.20;;
52188;SDS011;38162;45.926;13.608;2023-03-15T10:38:27;0.63;;;0.25;;
52188;SDS011;38162;45.926;13.608;2023-03-15T10:40:56;0.82;;;0.30;;
52188;SDS011;38162;45.926;13.608;2023-03-15T10:43:27;0.52;;;0.30;;
52188;SDS011;38162;45.926;13.608;2023-03-15T10:46:41;0.43;;;0.30;;
52188;SDS011;38162;45.926;13.608;2023-03-15T10:48:55;2.40;;;0.20;;
52188;SDS011;38162;45.926;13.608;2023-03-15T10:51:45;0.20;;;0.20;;
52188;SDS011;38162;45.926;13.608;2023-03-15T10:54:21;0.57;;;0.20;;
52188;SDS011;38162;45.926;13.608;2023-03-15T10:59:24;0.77;;;0.30;;
52188;SDS011;38162;45.926;13.608;2023-03-15T11:02:06;2.13;;;0.73;;
52188;SDS011;38162;45.926;13.608;2023-03-15T11:04:39;0.75;;;0.30;;
52188;SDS011;38162;45.926;13.608;2023-03-15T11:07:06;0.85;;;0.20;;
52188;SDS011;38162;45.926;13.608;2023-03-15T11:09:39;0.10;;;0.10;;
52188;SDS011;38162;45.926;13.608;2023-03-15T11:12:31;0.60;;;0.20;;
52188;SDS011;38162;45.926;13.608;2023-03-15T11:15:05;0.43;;;0.30;;
52188;SDS011;38162;45.926;13.608;2023-03-15T11:17:45;0.50;;;0.30;;
52188;SDS011;38162;45.926;13.608;2023-03-15T11:22:50;1.65;;;0.15;;
52188;SDS011;38162;45.926;13.608;2023-03-15T11:25:17;0.65;;;0.20;;
52188;SDS011;38162;45.926;13.608;2023-03-15T11:27:47;0.65;;;0.40;;
52188;SDS011;38162;45.926;13.608;2023-03-15T11:30:17;1.85;;;0.20;;
52188;SDS011;38162;45.926;13.608;2023-03-15T11:32:49;0.38;;;0.10;;
52188;SDS011;38162;45.926;13.608;2023-03-15T11:35:23;0.17;;;0.10;;
52188;SDS011;38162;45.926;13.608;2023-03-15T11:38:09;0.10;;;0.10;;
52188;SDS011;38162;45.926;13.608;2023-03-15T11:40:40;0.70;;;0.22;;
52188;SDS011;38162;45.926;13.608;2023-03-15T11:44:11;0.38;;;0.17;;
52188;SDS011;38162;45.926;13.608;2023-03-15T11:46:39;1.00;;;0.30;;
52188;SDS011;38162;45.926;13.608;2023-03-15T12:22:27;1.30;;;0.30;;
52188;SDS011;38162;45.926;13.608;2023-03-15T12:24:58;0.32;;;0.20;;
52188;SDS011;38162;45.926;13.608;2023-03-15T12:28:04;0.40;;;0.30;;
52188;SDS011;38162;45.926;13.608;2023-03-15T12:30:42;0.32;;;0.10;;
52188;SDS011;38162;45.926;13.608;2023-03-15T12:33:13;0.45;;;0.30;;
52188;SDS011;38162;45.926;13.608;2023-03-15T12:35:41;4.68;;;0.30;;
52188;SDS011;38162;45.926;13.608;2023-03-15T12:38:11;0.20;;;0.10;;
52188;SDS011;38162;45.926;13.608;2023-03-15T12:40:56;1.05;;;0.17;;
52188;SDS011;38162;45.926;13.608;2023-03-15T12:46:54;0.57;;;0.15;;
52188;SDS011;38162;45.926;13.608;2023-03-15T12:49:04;0.52;;;0.30;;
52188;SDS011;38162;45.926;13.608;2023-03-15T12:57:29;0.85;;;0.25;;
52188;SDS011;38162;45.926;13.608;2023-03-15T13:00:02;0.75;;;0.10;;
52188;SDS011;38162;45.926;13.608;2023-03-15T13:05:49;0.15;;;0.15;;
52188;SDS011;38162;45.926;13.608;2023-03-15T13:08:24;0.47;;;0.30;;
52188;SDS011;38162;45.926;13.608;2023-03-15T13:21:58;0.20;;;0.10;;
52188;SDS011;38162;45.926;13.608;2023-03-15T13:27:43;0.68;;;0.20;;
52188;SDS011;38162;45.926;13.608;2023-03-15T13:30:36;0.20;;;0.10;;
52188;SDS011;38162;45.926;13.608;2023-03-15T13:33:23;0.98;;;0.40;;
52188;SDS011;38162;45.926;13.608;2023-03-15T13:38:31;0.55;;;0.30;;
52188;SDS011;38162;45.926;13.608;2023-03-15T13:47:32;0.22;;;0.20;;
52188;SDS011;38162;45.926;13.608;2023-03-15T13:50:01;0.55;;;0.30;;
52188;SDS011;38162;45.926;13.608;2023-03-15T13:52:31;52.67;;;2.10;;
52188;SDS011;38162;45.926;13.608;2023-03-15T14:05:14;0.43;;;0.20;;
52188;SDS011;38162;45.926;13.608;2023-03-15T14:08:04;0.30;;;0.20;;
52188;SDS011;38162;45.926;13.608;2023-03-15T14:10:33;0.28;;;0.15;;
52188;SDS011;38162;45.926;13.608;2023-03-15T14:15:45;1.00;;;0.30;;
52188;SDS011;38162;45.926;13.608;2023-03-15T14:23:35;0.20;;;0.20;;
52188;SDS011;38162;45.926;13.608;2023-03-15T14:31:38;0.20;;;0.10;;
52188;SDS011;38162;45.926;13.608;2023-03-15T14:36:43;1.00;;;0.20;;
52188;SDS011;38162;45.926;13.608;2023-03-15T14:39:15;0.75;;;0.20;;
52188;SDS011;38162;45.926;13.608;2023-03-15T14:42:02;2.35;;;0.30;;
52188;SDS011;38162;45.926;13.608;2023-03-15T14:44:28;1.63;;;0.20;;
52188;SDS011;38162;45.926;13.608;2023-03-15T14:46:54;0.55;;;0.28;;
52188;SDS011;38162;45.926;13.608;2023-03-15T14:49:23;0.45;;;0.20;;
52188;SDS011;38162;45.926;13.608;2023-03-15T14:51:55;0.43;;;0.20;;
52188;SDS011;38162;45.926;13.608;2023-03-15T14:54:29;0.32;;;0.13;;
52188;SDS011;38162;45.926;13.608;2023-03-15T14:56:56;0.70;;;0.40;;
52188;SDS011;38162;45.926;13.608;2023-03-15T14:59:22;0.60;;;0.10;;
52188;SDS011;38162;45.926;13.608;2023-03-15T15:01:52;2.00;;;0.10;;
52188;SDS011;38162;45.926;13.608;2023-03-15T15:04:21;0.45;;;0.20;;
52188;SDS011;38162;45.926;13.608;2023-03-15T15:06:47;0.10;;;0.10;;
52188;SDS011;38162;45.926;13.608;2023-03-15T15:09:21;0.63;;;0.25;;
52188;SDS011;38162;45.926;13.608;2023-03-15T15:11:49;0.20;;;0.20;;
52188;SDS011;38162;45.926;13.608;2023-03-15T15:14:16;0.13;;;0.10;;
52188;SDS011;38162;45.926;13.608;2023-03-15T15:16:45;1.80;;;0.38;;
52188;SDS011;38162;45.926;13.608;2023-03-15T15:33:01;0.38;;;0.15;;
52188;SDS011;38162;45.926;13.608;2023-03-15T15:40:31;0.55;;;0.22;;
52188;SDS011;38162;45.926;13.608;2023-03-15T15:43:26;0.60;;;0.20;;
52188;SDS011;38162;45.926;13.608;2023-03-15T15:45:55;0.60;;;0.30;;
52188;SDS011;38162;45.926;13.608;2023-03-15T15:48:21;0.55;;;0.20;;
52188;SDS011;38162;45.926;13.608;2023-03-15T15:50:47;0.60;;;0.30;;
52188;SDS011;38162;45.926;13.608;2023-03-15T15:53:15;2.30;;;0.40;;
52188;SDS011;38162;45.926;13.608;2023-03-15T15:55:42;0.40;;;0.20;;
52188;SDS011;38162;45.926;13.608;2023-03-15T15:58:08;2.15;;;0.77;;
52188;SDS011;38162;45.926;13.608;2023-03-15T16:00:36;5.20;;;0.70;;
52188;SDS011;38162;45.926;13.608;2023-03-15T16:03:01;0.40;;;0.30;;
52188;SDS011;38162;45.926;13.608;2023-03-15T16:05:28;0.95;;;0.30;;
52188;SDS011;38162;45.926;13.608;2023-03-15T16:07:55;2.53;;;0.50;;
52188;SDS011;38162;45.926;13.608;2023-03-15T16:10:28;0.65;;;0.20;;
52188;SDS011;38162;45.926;13.608;2023-03-15T16:12:54;0.75;;;0.30;;
52188;SDS011;38162;45.926;13.608;2023-03-15T16:15:21;0.60;;;0.30;;
52188;SDS011;38162;45.926;13.608;2023-03-15T16:17:47;0.40;;;0.20;;
52188;SDS011;38162;45.926;13.608;2023-03-15T16:20:13;0.57;;;0.30;;
52188;SDS011;38162;45.926;13.608;2023-03-15T16:22:42;1.35;;;0.60;;
52188;SDS011;38162;45.926;13.608;2023-03-15T16:25:13;0.90;;;0.45;;
52188;SDS011;38162;45.926;13.608;2023-03-15T16:27:48;1.83;;;0.40;;
52188;SDS011;38162;45.926;13.608;2023-03-15T16:30:27;1.45;;;0.40;;
52188;SDS011;38162;45.926;13.608;2023-03-15T16:32:55;2.85;;;0.40;;
52188;SDS011;38162;45.926;13.608;2023-03-15T16:35:22;0.80;;;0.38;;
52188;SDS011;38162;45.926;13.608;2023-03-15T16:37:51;0.47;;;0.40;;
52188;SDS011;38162;45.926;13.608;2023-03-15T16:40:21;0.88;;;0.20;;
52188;SDS011;38162;45.926;13.608;2023-03-15T16:42:59;0.55;;;0.30;;
52188;SDS011;38162;45.926;13.608;2023-03-15T16:45:25;0.50;;;0.17;;
52188;SDS011;38162;45.926;13.608;2023-03-15T16:47:52;0.47;;;0.30;;
52188;SDS011;38162;45.926;13.608;2023-03-15T16:50:20;0.82;;;0.40;;
52188;SDS011;38162;45.926;13.608;2023-03-15T16:52:47;1.38;;;0.50;;
52188;SDS011;38162;45.926;13.608;2023-03-15T16:55:16;0.40;;;0.25;;
52188;SDS011;38162;45.926;13.608;2023-03-15T16:57:45;0.40;;;0.40;;
52188;SDS011;38162;45.926;13.608;2023-03-15T17:00:12;1.17;;;0.40;;
52188;SDS011;38162;45.926;13.608;2023-03-15T17:26:43;1.98;;;0.93;;
52188;SDS011;38162;45.926;13.608;2023-03-15T17:29:34;1.40;;;1.00;;
52188;SDS011;38162;45.926;13.608;2023-03-15T17:32:22;1.58;;;0.93;;
52188;SDS011;38162;45.926;13.608;2023-03-15T17:34:49;1.50;;;0.73;;
52188;SDS011;38162;45.926;13.608;2023-03-15T17:37:15;1.80;;;1.08;;
52188;SDS011;38162;45.926;13.608;2023-03-15T17:39:42;2.42;;;1.33;;
52188;SDS011;38162;45.926;13.608;2023-03-15T17:42:12;4.22;;;2.33;;
52188;SDS011;38162;45.926;13.608;2023-03-15T17:44:39;4.22;;;1.55;;
52188;SDS011;38162;45.926;13.608;2023-03-15T17:47:08;1.58;;;1.02;;
52188;SDS011;38162;45.926;13.608;2023-03-15T17:49:35;2.85;;;1.83;;
52188;SDS011;38162;45.926;13.608;2023-03-15T17:52:01;5.00;;;3.38;;
52188;SDS011;38162;45.926;13.608;2023-03-15T17:54:28;5.10;;;1.92;;
52188;SDS011;38162;45.926;13.608;2023-03-15T17:56:53;1.92;;;1.02;;
52188;SDS011;38162;45.926;13.608;2023-03-15T17:59:20;4.03;;;1.63;;
52188;SDS011;38162;45.926;13.608;2023-03-15T18:01:46;10.52;;;5.53;;
52188;SDS011;38162;45.926;13.608;2023-03-15T18:04:13;9.45;;;6.07;;
52188;SDS011;38162;45.926;13.608;2023-03-15T18:06:40;4.75;;;3.03;;
52188;SDS011;38162;45.926;13.608;2023-03-15T18:09:08;11.70;;;7.50;;
52188;SDS011;38162;45.926;13.608;2023-03-15T18:11:35;6.32;;;4.60;;
52188;SDS011;38162;45.926;13.608;2023-03-15T18:14:02;3.78;;;2.00;;
52188;SDS011;38162;45.926;13.608;2023-03-15T18:16:28;6.40;;;2.67;;
52188;SDS011;38162;45.926;13.608;2023-03-15T18:18:54;7.68;;;4.90;;
52188;SDS011;38162;45.926;13.608;2023-03-15T18:21:25;6.13;;;3.33;;
52188;SDS011;38162;45.926;13.608;2023-03-15T18:23:51;8.38;;;6.53;;
52188;SDS011;38162;45.926;13.608;2023-03-15T18:26:18;6.95;;;5.22;;
52188;SDS011;38162;45.926;13.608;2023-03-15T18:28:44;5.70;;;2.70;;
52188;SDS011;38162;45.926;13.608;2023-03-15T18:31:13;8.38;;;3.50;;
52188;SDS011;38162;45.926;13.608;2023-03-15T18:33:44;2.87;;;1.57;;
52188;SDS011;38162;45.926;13.608;2023-03-15T18:36:10;4.13;;;2.15;;
52188;SDS011;38162;45.926;13.608;2023-03-15T18:38:37;2.17;;;1.30;;
52188;SDS011;38162;45.926;13.608;2023-03-15T18:41:03;2.05;;;1.02;;
52188;SDS011;38162;45.926;13.608;2023-03-15T18:43:36;2.05;;;1.20;;
52188;SDS011;38162;45.926;13.608;2023-03-15T18:46:02;2.22;;;1.20;;
52188;SDS011;38162;45.926;13.608;2023-03-15T19:09:49;2.28;;;1.17;;
52188;SDS011;38162;45.926;13.608;2023-03-15T19:15:20;3.28;;;1.92;;
52188;SDS011;38162;45.926;13.608;2023-03-15T19:17:48;1.67;;;1.25;;
52188;SDS011;38162;45.926;13.608;2023-03-15T19:20:17;2.70;;;0.90;;
52188;SDS011;38162;45.926;13.608;2023-03-15T19:22:47;1.60;;;0.80;;
52188;SDS011;38162;45.926;13.608;2023-03-15T19:25:14;1.60;;;1.08;;
52188;SDS011;38162;45.926;13.608;2023-03-15T19:27:40;3.38;;;1.80;;
52188;SDS011;38162;45.926;13.608;2023-03-15T19:30:07;2.17;;;1.35;;
52188;SDS011;38162;45.926;13.608;2023-03-15T19:32:34;1.67;;;1.10;;
52188;SDS011;38162;45.926;13.608;2023-03-15T19:35:00;2.83;;;0.82;;
52188;SDS011;38162;45.926;13.608;2023-03-15T19:37:26;4.68;;;1.10;;
52188;SDS011;38162;45.926;13.608;2023-03-15T19:39:52;2.55;;;1.25;;